createdAt,value
2019-02-28T00:00:40.649Z,7.17
2019-02-28T00:03:09.481Z,6.97
2019-02-28T00:05:39.030Z,8.23
2019-02-28T00:08:07.584Z,6.90
2019-02-28T00:10:36.124Z,7.60
2019-02-28T00:13:04.696Z,8.80
2019-02-28T00:15:33.319Z,7.43
2019-02-28T00:18:03.589Z,7.10
2019-02-28T00:20:32.659Z,9.53
2019-02-28T00:23:01.228Z,6.83
2019-02-28T00:25:29.694Z,9.60
2019-02-28T00:27:58.195Z,7.90
2019-02-28T00:30:26.717Z,7.87
2019-02-28T00:32:56.430Z,6.87
2019-02-28T00:35:25.434Z,7.10
2019-02-28T00:37:56.670Z,8.17
2019-02-28T00:40:24.208Z,7.50
2019-02-28T00:42:52.662Z,6.63
2019-02-28T00:45:21.148Z,6.83
2019-02-28T00:47:49.608Z,7.60
2019-02-28T00:50:18.178Z,7.53
2019-02-28T00:52:46.715Z,7.03
2019-02-28T00:55:15.540Z,6.97
2019-02-28T00:57:44.118Z,7.00
2019-02-28T01:00:15.924Z,8.10
2019-02-28T01:02:44.480Z,7.80
2019-02-28T01:05:13.033Z,8.47
2019-02-28T01:07:41.483Z,8.43
2019-02-28T01:10:13.925Z,7.60
2019-02-28T01:12:42.397Z,9.27
2019-02-28T01:15:17.527Z,8.03
2019-02-28T01:17:46.234Z,7.33
2019-02-28T01:20:16.328Z,7.07
2019-02-28T01:22:45.150Z,7.60
2019-02-28T01:25:18.030Z,6.80
2019-02-28T01:27:46.485Z,6.47
2019-02-28T01:30:15.796Z,6.47
2019-02-28T01:32:44.321Z,7.00
2019-02-28T01:35:12.943Z,5.73
2019-02-28T01:37:44.025Z,6.20
2019-02-28T01:40:14.169Z,7.90
2019-02-28T01:42:42.863Z,6.13
2019-02-28T01:45:12.771Z,5.93
2019-02-28T01:47:41.383Z,5.93
2019-02-28T01:50:11.473Z,5.83
2019-02-28T01:52:44.391Z,5.10
2019-02-28T01:55:11.215Z,5.93
2019-02-28T01:57:43.874Z,5.97
2019-02-28T02:00:12.769Z,6.57
2019-02-28T02:02:41.313Z,5.70
2019-02-28T02:05:09.968Z,6.20
2019-02-28T02:07:38.453Z,6.20
2019-02-28T02:10:21.280Z,6.03
2019-02-28T02:12:48.118Z,7.27
2019-02-28T02:15:17.124Z,6.07
2019-02-28T02:17:46.415Z,5.13
2019-02-28T02:20:15.712Z,5.10
2019-02-28T02:22:45.257Z,5.43
2019-02-28T02:25:14.117Z,4.47
2019-02-28T02:27:42.616Z,5.37
2019-02-28T02:30:22.570Z,4.57
2019-02-28T02:32:51.121Z,4.83
2019-02-28T02:35:19.608Z,5.47
2019-02-28T02:37:48.183Z,5.60
2019-02-28T02:40:17.211Z,5.63
2019-02-28T02:42:48.428Z,6.67
2019-02-28T02:45:16.308Z,5.40
2019-02-28T02:47:44.845Z,7.47
2019-02-28T02:50:17.112Z,6.80
2019-02-28T02:52:45.589Z,6.40
2019-02-28T02:55:14.276Z,7.60
2019-02-28T02:57:42.814Z,6.80
2019-02-28T03:00:18.569Z,7.00
2019-02-28T03:02:59.782Z,6.00
2019-02-28T03:05:34.924Z,7.90
2019-02-28T03:07:59.807Z,6.90
2019-02-28T03:10:28.801Z,7.30
2019-02-28T03:12:57.352Z,8.93
2019-02-28T03:15:27.247Z,10.00
2019-02-28T03:17:55.855Z,8.03
2019-02-28T03:20:24.407Z,7.63
2019-02-28T03:22:52.882Z,7.17
2019-02-28T03:25:27.681Z,6.77
2019-02-28T03:27:56.481Z,7.57
2019-02-28T03:30:28.499Z,7.17
2019-02-28T03:32:52.211Z,7.03
2019-02-28T03:35:20.820Z,7.60
2019-02-28T03:37:49.413Z,7.40
2019-02-28T03:40:18.121Z,7.47
2019-02-28T03:42:46.681Z,8.57
2019-02-28T03:45:18.324Z,7.50
2019-02-28T03:47:46.848Z,7.57
2019-02-28T03:50:15.449Z,7.10
2019-02-28T03:52:44.829Z,6.73
2019-02-28T03:55:14.609Z,6.00
2019-02-28T03:57:43.124Z,6.80
2019-02-28T04:00:32.629Z,6.03
2019-02-28T04:02:58.709Z,6.03
2019-02-28T04:05:27.975Z,6.30
2019-02-28T04:07:55.948Z,6.17
2019-02-28T04:10:24.497Z,7.13
2019-02-28T04:12:53.043Z,7.60
2019-02-28T04:15:21.853Z,6.30
2019-02-28T04:17:50.430Z,6.13
2019-02-28T04:20:19.051Z,6.87
2019-02-28T04:22:47.611Z,7.30
2019-02-28T04:25:22.846Z,6.10
2019-02-28T04:27:46.405Z,6.83
2019-02-28T04:30:15.418Z,7.07
2019-02-28T04:32:43.951Z,6.47
2019-02-28T04:35:12.595Z,8.90
2019-02-28T04:37:45.486Z,6.80
2019-02-28T04:40:14.510Z,7.70
2019-02-28T04:42:43.128Z,6.13
2019-02-28T04:45:13.413Z,6.80
2019-02-28T04:47:42.049Z,7.03
2019-02-28T04:50:11.954Z,6.80
2019-02-28T04:52:46.746Z,6.93
2019-02-28T04:55:11.295Z,5.47
2019-02-28T04:57:39.780Z,7.43
2019-02-28T05:00:16.592Z,7.13
2019-02-28T05:02:45.159Z,6.57
2019-02-28T05:05:13.875Z,8.17
2019-02-28T05:07:42.524Z,5.93
2019-02-28T05:10:11.819Z,7.93
2019-02-28T05:12:41.054Z,6.30
2019-02-28T05:15:11.954Z,6.10
2019-02-28T05:17:40.473Z,7.07
2019-02-28T05:20:10.746Z,6.53
2019-02-28T05:22:40.624Z,5.80
2019-02-28T05:25:10.312Z,8.00
2019-02-28T05:27:38.872Z,6.80
2019-02-28T05:30:18.003Z,6.47
2019-02-28T05:32:43.708Z,6.83
2019-02-28T05:35:12.294Z,9.37
2019-02-28T05:37:46.451Z,7.83
2019-02-28T05:40:12.975Z,7.10
2019-02-28T05:42:41.478Z,7.63
2019-02-28T05:45:11.392Z,6.63
2019-02-28T05:47:46.115Z,6.73
2019-02-28T05:50:15.596Z,6.50
2019-02-28T05:52:42.450Z,7.00
2019-02-28T05:55:11.065Z,7.93
2019-02-28T05:57:43.284Z,7.83
2019-02-28T06:00:18.030Z,7.57
2019-02-28T06:06:14.296Z,6.60
2019-02-28T06:08:42.840Z,6.63
2019-02-28T06:11:11.312Z,7.13
2019-02-28T06:13:39.883Z,6.73
2019-02-28T06:16:11.324Z,6.73
2019-02-28T06:18:38.533Z,7.90
2019-02-28T06:21:07.000Z,7.77
2019-02-28T06:23:35.496Z,7.13
2019-02-28T06:26:04.013Z,6.40
2019-02-28T06:28:32.502Z,6.83
2019-02-28T06:31:01.034Z,7.10
2019-02-28T06:33:30.570Z,7.57
2019-02-28T06:35:59.798Z,8.00
2019-02-28T06:38:28.369Z,8.20
2019-02-28T06:40:56.881Z,8.23
2019-02-28T06:43:25.377Z,6.47
2019-02-28T06:45:53.919Z,7.83
2019-02-28T06:48:25.802Z,7.77
2019-02-28T06:50:52.570Z,8.57
2019-02-28T06:53:21.047Z,7.90
2019-02-28T06:55:49.552Z,8.17
2019-02-28T06:58:18.142Z,7.50
2019-02-28T07:00:47.318Z,7.47
2019-02-28T07:03:16.639Z,7.50
2019-02-28T07:05:45.129Z,7.70
2019-02-28T07:08:13.665Z,6.37
2019-02-28T07:10:44.923Z,6.90
2019-02-28T07:13:12.429Z,8.70
2019-02-28T07:15:40.931Z,9.67
2019-02-28T07:18:09.403Z,8.53
2019-02-28T07:20:37.919Z,7.60
2019-02-28T07:23:06.449Z,8.13
2019-02-28T07:25:34.941Z,6.70
2019-02-28T07:28:03.490Z,7.63
2019-02-28T07:30:32.059Z,12.17
2019-02-28T07:33:00.616Z,8.23
2019-02-28T07:35:32.907Z,9.93
2019-02-28T07:37:59.346Z,10.63
2019-02-28T07:40:27.831Z,6.47
2019-02-28T07:42:56.297Z,7.73
2019-02-28T07:45:24.785Z,7.33
2019-02-28T07:47:53.345Z,7.37
2019-02-28T07:50:21.873Z,7.50
2019-02-28T07:52:50.355Z,10.83
2019-02-28T07:55:19.963Z,8.73
2019-02-28T07:57:54.202Z,8.37
2019-02-28T08:00:20.597Z,8.10
2019-02-28T08:02:49.218Z,8.37
2019-02-28T08:05:17.815Z,9.53
2019-02-28T08:07:52.089Z,8.27
2019-02-28T08:10:28.256Z,8.70
2019-02-28T08:12:56.805Z,8.57
2019-02-28T08:15:26.400Z,10.50
2019-02-28T08:17:54.950Z,9.17
2019-02-28T08:20:23.500Z,9.27
2019-02-28T08:22:52.150Z,8.83
2019-02-28T08:25:20.643Z,8.90
2019-02-28T08:27:49.206Z,9.57
2019-02-28T08:30:20.756Z,10.20
2019-02-28T08:32:49.443Z,10.00
2019-02-28T08:35:18.001Z,10.27
2019-02-28T08:37:46.528Z,15.30
2019-02-28T08:40:20.431Z,13.07
2019-02-28T08:42:49.952Z,15.37
2019-02-28T08:45:18.647Z,15.50
2019-02-28T08:47:47.171Z,15.50
2019-02-28T08:50:23.299Z,14.50
2019-02-28T08:52:52.266Z,15.40
2019-02-28T08:55:28.233Z,17.63
2019-02-28T08:57:55.657Z,14.87
2019-02-28T09:00:22.495Z,20.57
2019-02-28T09:02:53.086Z,17.10
2019-02-28T09:05:25.527Z,15.87
2019-02-28T09:07:52.056Z,18.23
2019-02-28T09:10:22.814Z,15.23
2019-02-28T09:12:51.418Z,19.50
2019-02-28T09:15:20.153Z,16.20
2019-02-28T09:17:48.682Z,17.40
2019-02-28T09:20:17.514Z,17.83
2019-02-28T09:22:46.188Z,17.17
2019-02-28T09:25:22.100Z,19.13
2019-02-28T09:27:49.505Z,12.77
2019-02-28T09:30:32.576Z,18.00
2019-02-28T09:33:01.120Z,20.13
2019-02-28T09:35:29.711Z,16.77
2019-02-28T09:38:00.157Z,18.17
2019-02-28T09:40:29.453Z,19.57
2019-02-28T09:42:58.678Z,20.83
2019-02-28T09:45:31.222Z,22.27
2019-02-28T09:48:02.022Z,23.10
2019-02-28T09:50:29.915Z,23.53
2019-02-28T09:52:58.379Z,19.03
2019-02-28T09:55:26.834Z,23.03
2019-02-28T09:57:55.342Z,25.20
2019-02-28T10:00:27.717Z,24.10
2019-02-28T10:02:56.361Z,23.00
2019-02-28T10:05:24.842Z,23.37
2019-02-28T10:07:53.407Z,22.50
2019-02-28T10:10:27.695Z,26.93
2019-02-28T10:12:56.831Z,26.07
2019-02-28T10:15:25.690Z,23.43
2019-02-28T10:17:54.339Z,27.80
2019-02-28T10:20:39.500Z,22.43
2019-02-28T10:23:08.142Z,24.90
2019-02-28T10:25:40.956Z,22.17
2019-02-28T10:28:06.982Z,25.97
2019-02-28T10:30:35.524Z,29.47
2019-02-28T10:33:04.033Z,26.23
2019-02-28T10:35:33.464Z,25.80
2019-02-28T10:38:02.786Z,30.87
2019-02-28T10:40:31.658Z,28.57
2019-02-28T10:43:00.130Z,27.73
2019-02-28T10:45:28.918Z,28.57
2019-02-28T10:48:02.843Z,28.20
2019-02-28T10:50:33.235Z,27.23
2019-02-28T10:53:04.060Z,29.33
2019-02-28T10:55:33.275Z,31.30
2019-02-28T10:58:01.569Z,27.27
2019-02-28T11:00:32.849Z,29.07
2019-02-28T11:03:02.758Z,32.50
2019-02-28T11:05:33.641Z,27.33
2019-02-28T11:08:02.794Z,30.87
2019-02-28T11:10:37.110Z,27.77
2019-02-28T11:13:08.055Z,37.20
2019-02-28T11:15:36.726Z,29.03
2019-02-28T11:18:09.601Z,35.67
2019-02-28T11:20:36.157Z,30.07
2019-02-28T11:23:04.997Z,30.47
2019-02-28T11:25:35.539Z,27.77
2019-02-28T11:28:03.909Z,30.00
2019-02-28T11:30:33.275Z,29.83
2019-02-28T11:33:04.524Z,28.33
2019-02-28T11:35:32.544Z,28.13
2019-02-28T11:38:01.155Z,30.40
2019-02-28T11:40:29.785Z,30.33
2019-02-28T11:43:02.769Z,30.60
2019-02-28T11:45:32.580Z,30.30
2019-02-28T11:48:03.377Z,31.50
2019-02-28T11:50:32.306Z,31.23
2019-02-28T11:53:04.903Z,30.10
2019-02-28T11:55:31.219Z,28.90
2019-02-28T11:57:59.863Z,24.63
2019-02-28T12:00:32.611Z,28.10
2019-02-28T12:03:01.340Z,28.43
2019-02-28T12:05:29.873Z,29.23
2019-02-28T12:07:58.357Z,28.00
2019-02-28T12:10:27.826Z,27.23
2019-02-28T12:12:56.506Z,25.80
2019-02-28T12:15:32.593Z,24.97
2019-02-28T12:18:04.657Z,21.40
2019-02-28T12:20:31.339Z,23.97
2019-02-28T12:22:59.843Z,42.53
2019-02-28T12:25:28.470Z,23.53
2019-02-28T12:27:59.296Z,22.10
2019-02-28T12:30:34.306Z,21.57
2019-02-28T12:33:02.951Z,21.40
2019-02-28T12:35:37.295Z,22.23
2019-02-28T12:38:01.865Z,21.63
2019-02-28T12:40:35.392Z,19.63
2019-02-28T12:43:08.796Z,20.23
2019-02-28T12:45:39.388Z,22.60
2019-02-28T12:48:08.080Z,19.93
2019-02-28T12:50:36.790Z,21.13
2019-02-28T12:53:05.474Z,21.47
2019-02-28T12:55:35.527Z,22.60
2019-02-28T12:58:04.153Z,18.10
2019-02-28T13:00:43.538Z,21.77
2019-02-28T13:03:12.136Z,20.67
2019-02-28T13:05:40.727Z,18.70
2019-02-28T13:08:09.321Z,20.90
2019-02-28T13:10:37.825Z,19.37
2019-02-28T13:13:07.706Z,17.07
2019-02-28T13:15:36.499Z,14.70
2019-02-28T13:18:08.833Z,17.47
2019-02-28T13:20:37.653Z,14.70
2019-02-28T13:23:06.205Z,17.10
2019-02-28T13:25:34.741Z,21.23
2019-02-28T13:28:03.433Z,16.70
2019-02-28T13:30:33.688Z,16.03
2019-02-28T13:33:02.281Z,17.90
2019-02-28T13:35:45.704Z,18.13
2019-02-28T13:38:09.933Z,15.43
2019-02-28T13:40:40.889Z,13.07
2019-02-28T13:43:08.752Z,15.47
2019-02-28T13:45:37.216Z,15.73
2019-02-28T13:48:05.775Z,16.07
2019-02-28T13:50:37.083Z,15.13
2019-02-28T13:53:17.275Z,17.90
2019-02-28T13:55:37.461Z,15.80
2019-02-28T13:58:06.049Z,17.03
2019-02-28T14:00:43.989Z,17.37
2019-02-28T14:03:16.854Z,16.93
2019-02-28T14:05:44.707Z,15.70
2019-02-28T14:08:13.310Z,17.07
2019-02-28T14:10:41.992Z,18.27
2019-02-28T14:13:10.534Z,16.47
2019-02-28T14:15:52.682Z,16.07
2019-02-28T14:18:17.823Z,18.67
2019-02-28T14:20:46.471Z,17.03
2019-02-28T14:23:20.165Z,19.80
2019-02-28T14:25:45.279Z,18.03
2019-02-28T14:28:13.832Z,14.93
2019-02-28T14:30:42.450Z,17.23
2019-02-28T14:33:10.984Z,18.37
2019-02-28T14:35:39.495Z,19.27
2019-02-28T14:38:08.131Z,20.10
2019-02-28T14:40:36.779Z,15.73
2019-02-28T14:43:05.311Z,15.20
2019-02-28T14:45:43.052Z,15.33
2019-02-28T14:48:09.701Z,18.90
2019-02-28T14:50:38.434Z,26.50
2019-02-28T14:53:06.916Z,16.00
2019-02-28T14:55:37.290Z,13.33
2019-02-28T14:58:05.708Z,13.50
2019-02-28T15:00:35.557Z,14.30
2019-02-28T15:03:04.374Z,12.73
2019-02-28T15:05:38.460Z,15.17
2019-02-28T15:08:07.107Z,13.20
2019-02-28T15:10:36.078Z,10.40
2019-02-28T15:13:05.118Z,10.33
2019-02-28T15:15:36.136Z,9.50
2019-02-28T15:18:04.426Z,9.63
2019-02-28T15:20:33.367Z,10.00
2019-02-28T15:23:01.994Z,11.30
2019-02-28T15:25:30.911Z,10.97
2019-02-28T15:27:59.529Z,11.80
2019-02-28T15:30:34.929Z,9.90
2019-02-28T15:33:03.658Z,10.77
2019-02-28T15:35:32.298Z,10.43
2019-02-28T15:38:00.843Z,11.37
2019-02-28T15:40:37.615Z,9.83
2019-02-28T15:43:06.170Z,9.77
2019-02-28T15:45:36.265Z,12.97
2019-02-28T15:48:05.389Z,13.50
2019-02-28T15:50:34.019Z,12.70
2019-02-28T15:53:02.611Z,12.13
2019-02-28T15:55:35.267Z,10.93
2019-02-28T15:58:02.699Z,9.73
2019-02-28T16:00:32.948Z,14.13
2019-02-28T16:03:01.528Z,13.27
2019-02-28T16:05:30.218Z,14.60
2019-02-28T16:07:58.946Z,12.23
2019-02-28T16:10:32.965Z,17.77
2019-02-28T16:13:01.834Z,15.33
2019-02-28T16:15:30.371Z,14.77
2019-02-28T16:17:58.959Z,16.60
2019-02-28T16:20:28.538Z,15.50
2019-02-28T16:22:57.868Z,12.37
2019-02-28T16:25:35.428Z,14.87
2019-02-28T16:28:07.763Z,16.23
2019-02-28T16:30:36.244Z,18.40
2019-02-28T16:33:04.975Z,15.17
2019-02-28T16:35:33.441Z,15.80
2019-02-28T16:38:02.016Z,16.60
2019-02-28T16:40:31.478Z,16.03
2019-02-28T16:42:59.989Z,16.93
2019-02-28T16:45:40.746Z,15.90
2019-02-28T16:48:08.246Z,16.10
2019-02-28T16:50:36.969Z,15.87
2019-02-28T16:53:05.612Z,17.07
2019-02-28T16:55:34.412Z,15.40
2019-02-28T16:58:03.044Z,15.93
2019-02-28T17:00:31.743Z,18.33
2019-02-28T17:03:00.337Z,15.80
2019-02-28T17:05:28.975Z,15.83
2019-02-28T17:07:57.602Z,13.70
2019-02-28T17:10:33.916Z,19.70
2019-02-28T17:13:04.246Z,16.67
2019-02-28T17:15:37.417Z,14.77
2019-02-28T17:18:07.660Z,16.87
2019-02-28T17:20:37.667Z,17.63
2019-02-28T17:23:06.410Z,15.63
2019-02-28T17:25:34.889Z,15.50
2019-02-28T17:28:05.083Z,18.33
2019-02-28T17:30:37.922Z,16.50
2019-02-28T17:33:08.964Z,17.80
2019-02-28T17:35:36.776Z,15.80
2019-02-28T17:38:05.374Z,16.53
2019-02-28T17:40:33.860Z,19.67
2019-02-28T17:43:02.409Z,16.77
2019-02-28T17:45:31.113Z,17.33
2019-02-28T17:48:05.225Z,16.17
2019-02-28T17:50:51.800Z,16.50
2019-02-28T17:53:26.323Z,18.77
2019-02-28T17:56:24.924Z,22.93
2019-02-28T17:59:11.051Z,22.10
2019-02-28T18:01:48.061Z,18.57
2019-02-28T18:04:48.024Z,19.70
2019-02-28T18:07:43.178Z,20.37
2019-02-28T18:10:34.102Z,22.30
2019-02-28T18:13:27.860Z,19.50
2019-02-28T18:16:05.036Z,21.60
2019-02-28T18:18:41.579Z,22.90
2019-02-28T18:21:30.597Z,19.10
2019-02-28T18:24:16.987Z,18.50
2019-02-28T18:27:11.745Z,20.40
2019-02-28T18:30:18.573Z,17.10
2019-02-28T18:32:47.150Z,18.03
2019-02-28T18:35:15.614Z,17.20
2019-02-28T18:37:44.091Z,16.37
2019-02-28T18:40:12.795Z,17.57
2019-02-28T18:42:41.309Z,18.13
2019-02-28T18:45:11.483Z,18.67
2019-02-28T18:47:40.792Z,18.27
2019-02-28T18:50:09.960Z,17.63
2019-02-28T18:52:38.494Z,16.60
2019-02-28T18:55:07.736Z,16.40
2019-02-28T18:57:36.226Z,18.53
2019-02-28T19:00:08.970Z,19.13
2019-02-28T19:02:37.535Z,18.60
2019-02-28T19:05:07.055Z,17.47
2019-02-28T19:07:35.802Z,19.30
2019-02-28T19:10:06.613Z,20.83
2019-02-28T19:12:35.114Z,20.97
2019-02-28T19:15:04.318Z,18.93
2019-02-28T19:17:32.816Z,20.17
2019-02-28T19:20:01.376Z,18.23
2019-02-28T19:22:29.932Z,18.50
2019-02-28T19:24:58.403Z,17.30
2019-02-28T19:27:26.918Z,18.97
2019-02-28T19:29:55.477Z,23.60
2019-02-28T19:32:23.943Z,19.50
2019-02-28T19:34:52.441Z,18.83
2019-02-28T19:37:20.933Z,20.27
2019-02-28T19:39:49.497Z,18.43
2019-02-28T19:42:17.959Z,21.73
2019-02-28T19:44:46.491Z,19.27
2019-02-28T19:47:15.043Z,22.33
2019-02-28T19:49:43.548Z,19.23
2019-02-28T19:52:12.015Z,20.43
2019-02-28T19:54:40.591Z,23.70
2019-02-28T19:57:09.059Z,22.53
2019-02-28T19:59:37.529Z,22.53
2019-02-28T20:02:06.357Z,20.10
2019-02-28T20:04:34.842Z,21.90
2019-02-28T20:07:03.389Z,27.47
2019-02-28T20:09:31.956Z,19.77
2019-02-28T20:12:00.601Z,20.60
2019-02-28T20:14:29.157Z,19.97
2019-02-28T20:16:57.734Z,25.73
2019-02-28T20:19:26.215Z,18.80
2019-02-28T20:21:54.756Z,25.93
2019-02-28T20:24:23.257Z,22.20
2019-02-28T20:26:51.881Z,27.23
2019-02-28T20:29:20.398Z,25.63
2019-02-28T20:31:48.977Z,25.37
2019-02-28T20:34:17.734Z,22.70
2019-02-28T20:36:46.284Z,24.13
2019-02-28T20:39:15.234Z,23.17
2019-02-28T20:41:43.813Z,25.47
2019-02-28T20:44:12.325Z,29.47
2019-02-28T20:46:40.862Z,29.10
2019-02-28T20:49:09.384Z,26.73
2019-02-28T20:51:37.993Z,22.67
2019-02-28T20:54:06.531Z,20.43
2019-02-28T20:56:35.085Z,22.53
2019-02-28T20:59:03.618Z,19.87
2019-02-28T21:01:32.105Z,18.27
2019-02-28T21:04:00.631Z,19.10
2019-02-28T21:06:29.150Z,18.20
2019-02-28T21:08:57.641Z,21.23
2019-02-28T21:11:26.149Z,15.67
2019-02-28T21:13:54.621Z,15.70
2019-02-28T21:16:23.348Z,16.20
2019-02-28T21:18:51.882Z,14.33
2019-02-28T21:21:20.342Z,17.43
2019-02-28T21:23:48.829Z,11.30
2019-02-28T21:26:17.294Z,15.87
2019-02-28T21:28:45.782Z,11.50
2019-02-28T21:31:14.266Z,13.27
2019-02-28T21:33:42.755Z,12.23
2019-02-28T21:36:11.285Z,9.23
2019-02-28T21:38:39.845Z,13.83
2019-02-28T21:41:08.442Z,10.40
2019-02-28T21:43:36.990Z,9.73
2019-02-28T21:46:05.651Z,10.53
2019-02-28T21:48:34.189Z,9.13
2019-02-28T21:51:02.969Z,9.17
2019-02-28T21:53:31.467Z,19.33
2019-02-28T21:55:59.987Z,22.20
2019-02-28T21:58:28.728Z,9.30
2019-02-28T22:00:57.328Z,9.77
2019-02-28T22:03:25.799Z,9.83
2019-02-28T22:05:54.355Z,9.90
2019-02-28T22:08:22.875Z,6.57
2019-02-28T22:32:24.157Z,11.97
2019-02-28T22:34:48.540Z,10.57
2019-02-28T22:37:16.997Z,11.87
2019-02-28T22:39:45.476Z,9.70
2019-02-28T22:42:21.720Z,12.57
2019-02-28T22:44:44.148Z,9.30
2019-02-28T22:47:12.645Z,10.60
2019-02-28T22:49:41.157Z,10.47
2019-02-28T22:52:09.649Z,10.60
2019-02-28T22:54:38.100Z,9.93
2019-02-28T22:57:06.775Z,11.73
2019-02-28T22:59:35.233Z,11.77
2019-02-28T23:02:03.958Z,17.40
2019-02-28T23:04:32.420Z,10.87
2019-02-28T23:07:00.922Z,12.67
2019-02-28T23:09:29.378Z,12.70
2019-02-28T23:11:57.915Z,14.13
2019-02-28T23:14:26.420Z,12.57
2019-02-28T23:16:56.408Z,12.93
2019-02-28T23:19:24.880Z,12.30
2019-02-28T23:21:53.369Z,10.00
2019-02-28T23:24:51.987Z,11.73
2019-02-28T23:27:20.470Z,10.43
2019-02-28T23:29:54.795Z,10.37
2019-02-28T23:32:34.974Z,11.10
2019-02-28T23:35:04.765Z,12.40
2019-02-28T23:37:33.268Z,13.13
2019-02-28T23:40:01.748Z,22.97
2019-02-28T23:42:30.225Z,19.67
2019-02-28T23:44:58.686Z,27.33
2019-02-28T23:47:27.176Z,27.57
2019-02-28T23:49:55.636Z,25.33
2019-02-28T23:52:24.120Z,56.77
2019-02-28T23:54:52.856Z,33.23
2019-02-28T23:57:21.340Z,17.73
2019-02-28T23:59:49.797Z,13.13
